sensor_id;sensor_type;location;lat;lon;timestamp;temperature;humidity
9193;DHT22;4631;49.296;10.560;2024-03-22T00:00:40;7.70;99.90
9193;DHT22;4631;49.296;10.560;2024-03-22T00:03:06;7.60;99.90
9193;DHT22;4631;49.296;10.560;2024-03-22T00:05:32;7.60;99.90
9193;DHT22;4631;49.296;10.560;2024-03-22T00:07:59;7.60;99.90
9193;DHT22;4631;49.296;10.560;2024-03-22T00:10:24;7.60;99.90
9193;DHT22;4631;49.296;10.560;2024-03-22T00:12:51;7.60;99.90
9193;DHT22;4631;49.296;10.560;2024-03-22T00:15:18;7.50;99.90
9193;DHT22;4631;49.296;10.560;2024-03-22T00:17:45;7.50;99.90
9193;DHT22;4631;49.296;10.560;2024-03-22T00:20:11;7.50;99.90
9193;DHT22;4631;49.296;10.560;2024-03-22T00:22:37;7.50;99.90
9193;DHT22;4631;49.296;10.560;2024-03-22T00:25:03;7.40;99.90
9193;DHT22;4631;49.296;10.560;2024-03-22T00:27:31;7.40;99.90
9193;DHT22;4631;49.296;10.560;2024-03-22T00:29:57;7.30;99.90
9193;DHT22;4631;49.296;10.560;2024-03-22T00:32:25;7.30;99.90
9193;DHT22;4631;49.296;10.560;2024-03-22T00:34:50;7.30;99.90
9193;DHT22;4631;49.296;10.560;2024-03-22T00:37:17;7.30;99.90
9193;DHT22;4631;49.296;10.560;2024-03-22T00:39:43;7.20;99.90
9193;DHT22;4631;49.296;10.560;2024-03-22T00:42:10;7.20;99.90
9193;DHT22;4631;49.296;10.560;2024-03-22T00:44:36;7.20;99.90
9193;DHT22;4631;49.296;10.560;2024-03-22T00:47:02;7.20;99.90
9193;DHT22;4631;49.296;10.560;2024-03-22T00:49:30;7.10;99.90
9193;DHT22;4631;49.296;10.560;2024-03-22T00:51:56;7.10;99.90
9193;DHT22;4631;49.296;10.560;2024-03-22T00:54:22;7.00;99.90
9193;DHT22;4631;49.296;10.560;2024-03-22T00:56:48;7.00;99.90
9193;DHT22;4631;49.296;10.560;2024-03-22T00:59:14;7.00;99.90
9193;DHT22;4631;49.296;10.560;2024-03-22T01:01:42;7.00;99.90
9193;DHT22;4631;49.296;10.560;2024-03-22T01:04:07;6.90;99.90
9193;DHT22;4631;49.296;10.560;2024-03-22T01:06:35;6.80;99.90
9193;DHT22;4631;49.296;10.560;2024-03-22T01:09:01;6.80;99.90
9193;DHT22;4631;49.296;10.560;2024-03-22T01:11:28;6.80;99.90
9193;DHT22;4631;49.296;10.560;2024-03-22T01:13:54;6.70;99.90
9193;DHT22;4631;49.296;10.560;2024-03-22T01:16:21;6.70;99.90
9193;DHT22;4631;49.296;10.560;2024-03-22T01:18:46;6.70;99.90
9193;DHT22;4631;49.296;10.560;2024-03-22T01:21:13;6.60;99.90
9193;DHT22;4631;49.296;10.560;2024-03-22T01:23:40;6.60;99.90
9193;DHT22;4631;49.296;10.560;2024-03-22T01:26:07;6.60;99.90
9193;DHT22;4631;49.296;10.560;2024-03-22T01:28:33;6.60;99.90
9193;DHT22;4631;49.296;10.560;2024-03-22T01:31:00;6.50;99.90
9193;DHT22;4631;49.296;10.560;2024-03-22T01:33:25;6.40;99.90
9193;DHT22;4631;49.296;10.560;2024-03-22T01:35:52;6.40;99.90
9193;DHT22;4631;49.296;10.560;2024-03-22T01:38:17;6.30;99.90
9193;DHT22;4631;49.296;10.560;2024-03-22T01:40:45;6.30;99.90
9193;DHT22;4631;49.296;10.560;2024-03-22T01:43:11;6.20;99.90
9193;DHT22;4631;49.296;10.560;2024-03-22T01:45:38;6.20;99.90
9193;DHT22;4631;49.296;10.560;2024-03-22T01:48:03;6.10;99.90
9193;DHT22;4631;49.296;10.560;2024-03-22T01:50:30;6.10;99.90
9193;DHT22;4631;49.296;10.560;2024-03-22T01:52:56;6.10;99.90
9193;DHT22;4631;49.296;10.560;2024-03-22T01:55:22;6.00;99.90
9193;DHT22;4631;49.296;10.560;2024-03-22T01:57:50;6.00;99.90
9193;DHT22;4631;49.296;10.560;2024-03-22T02:00:18;6.00;99.90
9193;DHT22;4631;49.296;10.560;2024-03-22T02:02:44;6.00;99.90
9193;DHT22;4631;49.296;10.560;2024-03-22T02:05:11;5.90;99.90
9193;DHT22;4631;49.296;10.560;2024-03-22T02:07:37;5.90;99.90
9193;DHT22;4631;49.296;10.560;2024-03-22T02:10:03;5.90;99.90
9193;DHT22;4631;49.296;10.560;2024-03-22T02:12:29;5.80;99.90
9193;DHT22;4631;49.296;10.560;2024-03-22T02:14:58;5.90;99.90
9193;DHT22;4631;49.296;10.560;2024-03-22T02:17:24;5.80;99.90
9193;DHT22;4631;49.296;10.560;2024-03-22T02:19:50;5.80;99.90
9193;DHT22;4631;49.296;10.560;2024-03-22T02:22:16;5.80;99.90
9193;DHT22;4631;49.296;10.560;2024-03-22T02:24:44;5.80;99.90
9193;DHT22;4631;49.296;10.560;2024-03-22T02:27:10;5.80;99.90
9193;DHT22;4631;49.296;10.560;2024-03-22T02:29:36;5.80;99.90
9193;DHT22;4631;49.296;10.560;2024-03-22T02:32:02;5.70;99.90
9193;DHT22;4631;49.296;10.560;2024-03-22T02:34:29;5.70;99.90
9193;DHT22;4631;49.296;10.560;2024-03-22T02:36:55;5.70;99.90
9193;DHT22;4631;49.296;10.560;2024-03-22T02:39:21;5.70;99.90
9193;DHT22;4631;49.296;10.560;2024-03-22T02:41:48;5.60;99.90
9193;DHT22;4631;49.296;10.560;2024-03-22T02:44:15;5.60;99.90
9193;DHT22;4631;49.296;10.560;2024-03-22T02:46:41;5.60;99.90
9193;DHT22;4631;49.296;10.560;2024-03-22T02:49:07;5.60;99.90
9193;DHT22;4631;49.296;10.560;2024-03-22T02:51:33;5.50;99.90
9193;DHT22;4631;49.296;10.560;2024-03-22T02:54:00;5.40;99.90
9193;DHT22;4631;49.296;10.560;2024-03-22T02:56:25;5.40;99.90
9193;DHT22;4631;49.296;10.560;2024-03-22T02:58:53;5.30;99.90
9193;DHT22;4631;49.296;10.560;2024-03-22T03:01:19;5.30;99.90
9193;DHT22;4631;49.296;10.560;2024-03-22T03:03:45;5.30;99.90
9193;DHT22;4631;49.296;10.560;2024-03-22T03:06:11;5.30;99.90
9193;DHT22;4631;49.296;10.560;2024-03-22T03:08:38;5.30;99.90
9193;DHT22;4631;49.296;10.560;2024-03-22T03:11:04;5.20;99.90
9193;DHT22;4631;49.296;10.560;2024-03-22T03:13:30;5.20;99.90
9193;DHT22;4631;49.296;10.560;2024-03-22T03:15:57;5.20;99.90
9193;DHT22;4631;49.296;10.560;2024-03-22T03:18:24;5.10;99.90
9193;DHT22;4631;49.296;10.560;2024-03-22T03:20:50;5.10;99.90
9193;DHT22;4631;49.296;10.560;2024-03-22T03:23:16;5.10;99.90
9193;DHT22;4631;49.296;10.560;2024-03-22T03:25:42;5.00;99.90
9193;DHT22;4631;49.296;10.560;2024-03-22T03:28:08;4.90;99.90
9193;DHT22;4631;49.296;10.560;2024-03-22T03:30:34;4.90;99.90
9193;DHT22;4631;49.296;10.560;2024-03-22T03:33:02;4.90;99.90
9193;DHT22;4631;49.296;10.560;2024-03-22T03:35:28;4.90;99.90
9193;DHT22;4631;49.296;10.560;2024-03-22T03:37:55;4.80;99.90
9193;DHT22;4631;49.296;10.560;2024-03-22T03:40:23;4.80;99.90
9193;DHT22;4631;49.296;10.560;2024-03-22T03:42:50;4.70;99.90
9193;DHT22;4631;49.296;10.560;2024-03-22T03:45:15;4.70;99.90
9193;DHT22;4631;49.296;10.560;2024-03-22T03:47:42;4.70;99.90
9193;DHT22;4631;49.296;10.560;2024-03-22T03:50:09;4.60;99.90
9193;DHT22;4631;49.296;10.560;2024-03-22T03:52:36;4.60;99.90
9193;DHT22;4631;49.296;10.560;2024-03-22T03:55:01;4.60;99.90
9193;DHT22;4631;49.296;10.560;2024-03-22T03:57:28;4.60;99.90
9193;DHT22;4631;49.296;10.560;2024-03-22T03:59:54;4.60;99.90
9193;DHT22;4631;49.296;10.560;2024-03-22T04:02:21;4.60;99.90
9193;DHT22;4631;49.296;10.560;2024-03-22T04:04:46;4.60;99.90
9193;DHT22;4631;49.296;10.560;2024-03-22T04:07:14;4.50;99.90
9193;DHT22;4631;49.296;10.560;2024-03-22T04:09:40;4.50;99.90
9193;DHT22;4631;49.296;10.560;2024-03-22T04:12:07;4.50;99.90
9193;DHT22;4631;49.296;10.560;2024-03-22T04:14:33;4.40;99.90
9193;DHT22;4631;49.296;10.560;2024-03-22T04:16:59;4.40;99.90
9193;DHT22;4631;49.296;10.560;2024-03-22T04:19:25;4.40;99.90
9193;DHT22;4631;49.296;10.560;2024-03-22T04:21:51;4.40;99.90
9193;DHT22;4631;49.296;10.560;2024-03-22T04:24:18;4.30;99.90
9193;DHT22;4631;49.296;10.560;2024-03-22T04:26:45;4.30;99.90
9193;DHT22;4631;49.296;10.560;2024-03-22T04:29:11;4.30;99.90
9193;DHT22;4631;49.296;10.560;2024-03-22T04:31:37;4.20;99.90
9193;DHT22;4631;49.296;10.560;2024-03-22T04:34:03;4.20;99.90
9193;DHT22;4631;49.296;10.560;2024-03-22T04:36:30;4.20;99.90
9193;DHT22;4631;49.296;10.560;2024-03-22T04:38:56;4.10;99.90
9193;DHT22;4631;49.296;10.560;2024-03-22T04:41:25;4.10;99.90
9193;DHT22;4631;49.296;10.560;2024-03-22T04:43:51;4.10;99.90
9193;DHT22;4631;49.296;10.560;2024-03-22T04:46:18;4.00;99.90
9193;DHT22;4631;49.296;10.560;2024-03-22T04:48:44;4.00;99.90
9193;DHT22;4631;49.296;10.560;2024-03-22T04:51:10;4.10;99.90
9193;DHT22;4631;49.296;10.560;2024-03-22T04:53:37;4.00;99.90
9193;DHT22;4631;49.296;10.560;2024-03-22T04:56:03;4.00;99.90
9193;DHT22;4631;49.296;10.560;2024-03-22T04:58:31;4.00;99.90
9193;DHT22;4631;49.296;10.560;2024-03-22T05:00:57;4.00;99.90
9193;DHT22;4631;49.296;10.560;2024-03-22T05:03:24;4.00;99.90
9193;DHT22;4631;49.296;10.560;2024-03-22T05:05:50;4.00;99.90
9193;DHT22;4631;49.296;10.560;2024-03-22T05:08:17;3.90;99.90
9193;DHT22;4631;49.296;10.560;2024-03-22T05:10:42;3.90;99.90
9193;DHT22;4631;49.296;10.560;2024-03-22T05:13:09;3.90;99.90
9193;DHT22;4631;49.296;10.560;2024-03-22T05:15:36;3.80;99.90
9193;DHT22;4631;49.296;10.560;2024-03-22T05:18:03;3.80;99.90
9193;DHT22;4631;49.296;10.560;2024-03-22T05:20:29;3.80;99.90
9193;DHT22;4631;49.296;10.560;2024-03-22T05:22:55;3.80;99.90
9193;DHT22;4631;49.296;10.560;2024-03-22T05:25:21;3.80;99.90
9193;DHT22;4631;49.296;10.560;2024-03-22T05:27:47;3.80;99.90
9193;DHT22;4631;49.296;10.560;2024-03-22T05:30:13;3.80;99.90
9193;DHT22;4631;49.296;10.560;2024-03-22T05:32:41;3.80;99.90
9193;DHT22;4631;49.296;10.560;2024-03-22T05:35:08;3.80;99.90
9193;DHT22;4631;49.296;10.560;2024-03-22T05:37:34;3.80;99.90
9193;DHT22;4631;49.296;10.560;2024-03-22T05:40:00;3.80;99.90
9193;DHT22;4631;49.296;10.560;2024-03-22T05:42:29;3.70;99.90
9193;DHT22;4631;49.296;10.560;2024-03-22T05:44:55;3.70;99.90
9193;DHT22;4631;49.296;10.560;2024-03-22T05:47:21;3.70;99.90
9193;DHT22;4631;49.296;10.560;2024-03-22T05:49:48;3.70;99.90
9193;DHT22;4631;49.296;10.560;2024-03-22T05:52:15;3.80;99.90
9193;DHT22;4631;49.296;10.560;2024-03-22T05:54:41;3.80;99.90
9193;DHT22;4631;49.296;10.560;2024-03-22T05:57:07;3.80;99.90
9193;DHT22;4631;49.296;10.560;2024-03-22T05:59:33;3.80;99.90
9193;DHT22;4631;49.296;10.560;2024-03-22T06:01:59;3.80;99.90
9193;DHT22;4631;49.296;10.560;2024-03-22T06:04:25;3.80;99.90
9193;DHT22;4631;49.296;10.560;2024-03-22T06:06:53;3.90;99.90
9193;DHT22;4631;49.296;10.560;2024-03-22T06:09:19;3.90;99.90
9193;DHT22;4631;49.296;10.560;2024-03-22T06:11:49;3.90;99.90
9193;DHT22;4631;49.296;10.560;2024-03-22T06:14:15;3.90;99.90
9193;DHT22;4631;49.296;10.560;2024-03-22T06:16:41;3.90;99.90
9193;DHT22;4631;49.296;10.560;2024-03-22T06:19:07;3.90;99.90
9193;DHT22;4631;49.296;10.560;2024-03-22T06:21:33;3.90;99.90
9193;DHT22;4631;49.296;10.560;2024-03-22T06:24:00;3.90;99.90
9193;DHT22;4631;49.296;10.560;2024-03-22T06:26:28;4.00;99.90
9193;DHT22;4631;49.296;10.560;2024-03-22T06:28:54;4.00;99.90
9193;DHT22;4631;49.296;10.560;2024-03-22T06:31:21;4.10;99.90
9193;DHT22;4631;49.296;10.560;2024-03-22T06:33:46;4.10;99.90
9193;DHT22;4631;49.296;10.560;2024-03-22T06:36:13;4.20;99.90
9193;DHT22;4631;49.296;10.560;2024-03-22T06:38:38;4.20;99.90
9193;DHT22;4631;49.296;10.560;2024-03-22T06:41:06;4.20;99.90
9193;DHT22;4631;49.296;10.560;2024-03-22T06:43:32;4.30;99.90
9193;DHT22;4631;49.296;10.560;2024-03-22T06:45:59;4.30;99.90
9193;DHT22;4631;49.296;10.560;2024-03-22T06:48:24;4.40;99.90
9193;DHT22;4631;49.296;10.560;2024-03-22T06:50:51;4.50;99.90
9193;DHT22;4631;49.296;10.560;2024-03-22T06:53:16;4.60;99.90
9193;DHT22;4631;49.296;10.560;2024-03-22T06:55:43;4.70;99.90
9193;DHT22;4631;49.296;10.560;2024-03-22T06:58:11;4.80;99.90
9193;DHT22;4631;49.296;10.560;2024-03-22T07:00:38;4.90;99.90
9193;DHT22;4631;49.296;10.560;2024-03-22T07:03:04;5.00;99.90
9193;DHT22;4631;49.296;10.560;2024-03-22T07:05:31;5.10;99.90
9193;DHT22;4631;49.296;10.560;2024-03-22T07:07:57;5.30;99.90
9193;DHT22;4631;49.296;10.560;2024-03-22T07:10:23;5.40;99.90
9193;DHT22;4631;49.296;10.560;2024-03-22T07:12:53;5.40;99.90
9193;DHT22;4631;49.296;10.560;2024-03-22T07:15:22;5.50;99.90
9193;DHT22;4631;49.296;10.560;2024-03-22T07:17:48;5.60;99.90
9193;DHT22;4631;49.296;10.560;2024-03-22T07:20:15;5.70;99.90
9193;DHT22;4631;49.296;10.560;2024-03-22T07:22:40;5.90;99.90
9193;DHT22;4631;49.296;10.560;2024-03-22T07:25:07;6.00;99.90
9193;DHT22;4631;49.296;10.560;2024-03-22T07:27:34;6.10;99.90
9193;DHT22;4631;49.296;10.560;2024-03-22T07:30:01;6.20;99.90
9193;DHT22;4631;49.296;10.560;2024-03-22T07:32:28;6.30;99.90
9193;DHT22;4631;49.296;10.560;2024-03-22T07:34:55;6.40;99.90
9193;DHT22;4631;49.296;10.560;2024-03-22T07:37:20;6.50;99.90
9193;DHT22;4631;49.296;10.560;2024-03-22T07:39:47;6.60;99.90
9193;DHT22;4631;49.296;10.560;2024-03-22T07:42:12;6.70;99.90
9193;DHT22;4631;49.296;10.560;2024-03-22T07:44:39;6.80;99.90
9193;DHT22;4631;49.296;10.560;2024-03-22T07:47:05;6.90;99.90
9193;DHT22;4631;49.296;10.560;2024-03-22T07:49:33;7.00;99.90
9193;DHT22;4631;49.296;10.560;2024-03-22T07:51:59;7.20;99.90
9193;DHT22;4631;49.296;10.560;2024-03-22T07:54:26;7.30;99.90
9193;DHT22;4631;49.296;10.560;2024-03-22T07:56:51;7.40;99.90
9193;DHT22;4631;49.296;10.560;2024-03-22T07:59:18;7.50;99.90
9193;DHT22;4631;49.296;10.560;2024-03-22T08:01:44;7.70;99.90
9193;DHT22;4631;49.296;10.560;2024-03-22T08:04:12;7.80;99.90
9193;DHT22;4631;49.296;10.560;2024-03-22T08:06:39;7.90;99.90
9193;DHT22;4631;49.296;10.560;2024-03-22T08:09:05;8.10;99.90
9193;DHT22;4631;49.296;10.560;2024-03-22T08:11:33;8.10;99.90
9193;DHT22;4631;49.296;10.560;2024-03-22T08:13:59;8.30;99.90
9193;DHT22;4631;49.296;10.560;2024-03-22T08:16:28;8.40;99.90
9193;DHT22;4631;49.296;10.560;2024-03-22T08:18:55;8.50;99.90
9193;DHT22;4631;49.296;10.560;2024-03-22T08:21:21;8.60;99.90
9193;DHT22;4631;49.296;10.560;2024-03-22T08:23:49;8.70;99.90
9193;DHT22;4631;49.296;10.560;2024-03-22T08:26:15;8.90;99.90
9193;DHT22;4631;49.296;10.560;2024-03-22T08:28:41;9.10;99.90
9193;DHT22;4631;49.296;10.560;2024-03-22T08:31:07;9.20;99.90
9193;DHT22;4631;49.296;10.560;2024-03-22T08:33:34;9.30;99.90
9193;DHT22;4631;49.296;10.560;2024-03-22T08:35:59;9.50;99.90
9193;DHT22;4631;49.296;10.560;2024-03-22T08:38:26;9.50;99.90
9193;DHT22;4631;49.296;10.560;2024-03-22T08:40:53;9.60;99.90
9193;DHT22;4631;49.296;10.560;2024-03-22T08:43:20;9.70;99.90
9193;DHT22;4631;49.296;10.560;2024-03-22T08:45:48;9.70;99.90
9193;DHT22;4631;49.296;10.560;2024-03-22T08:48:14;9.70;99.90
9193;DHT22;4631;49.296;10.560;2024-03-22T08:50:41;9.80;99.90
9193;DHT22;4631;49.296;10.560;2024-03-22T08:53:08;9.90;99.90
9193;DHT22;4631;49.296;10.560;2024-03-22T08:55:34;10.10;99.90
9193;DHT22;4631;49.296;10.560;2024-03-22T08:58:02;10.30;99.90
9193;DHT22;4631;49.296;10.560;2024-03-22T09:00:28;10.40;99.90
9193;DHT22;4631;49.296;10.560;2024-03-22T09:02:54;10.60;99.90
9193;DHT22;4631;49.296;10.560;2024-03-22T09:05:20;10.70;99.90
9193;DHT22;4631;49.296;10.560;2024-03-22T09:07:47;10.90;99.90
9193;DHT22;4631;49.296;10.560;2024-03-22T09:10:13;11.00;99.90
9193;DHT22;4631;49.296;10.560;2024-03-22T09:12:40;11.20;99.90
9193;DHT22;4631;49.296;10.560;2024-03-22T09:15:08;11.40;99.90
9193;DHT22;4631;49.296;10.560;2024-03-22T09:17:35;11.50;99.90
9193;DHT22;4631;49.296;10.560;2024-03-22T09:20:00;11.60;99.90
9193;DHT22;4631;49.296;10.560;2024-03-22T09:22:29;11.80;99.90
9193;DHT22;4631;49.296;10.560;2024-03-22T09:24:54;12.00;99.90
9193;DHT22;4631;49.296;10.560;2024-03-22T09:27:21;12.20;99.90
9193;DHT22;4631;49.296;10.560;2024-03-22T09:29:48;12.40;99.90
9193;DHT22;4631;49.296;10.560;2024-03-22T09:32:16;12.60;99.90
9193;DHT22;4631;49.296;10.560;2024-03-22T09:34:42;12.80;99.90
9193;DHT22;4631;49.296;10.560;2024-03-22T09:37:08;12.90;99.90
9193;DHT22;4631;49.296;10.560;2024-03-22T09:39:34;13.10;99.90
9193;DHT22;4631;49.296;10.560;2024-03-22T09:42:00;13.20;99.90
9193;DHT22;4631;49.296;10.560;2024-03-22T09:44:30;13.40;99.90
9193;DHT22;4631;49.296;10.560;2024-03-22T09:46:57;13.50;99.90
9193;DHT22;4631;49.296;10.560;2024-03-22T09:49:25;13.60;99.90
9193;DHT22;4631;49.296;10.560;2024-03-22T09:51:52;13.60;99.90
9193;DHT22;4631;49.296;10.560;2024-03-22T09:54:18;13.70;99.90
9193;DHT22;4631;49.296;10.560;2024-03-22T09:56:45;13.80;99.90
9193;DHT22;4631;49.296;10.560;2024-03-22T09:59:13;13.90;99.90
9193;DHT22;4631;49.296;10.560;2024-03-22T10:01:40;13.90;99.90
9193;DHT22;4631;49.296;10.560;2024-03-22T10:04:06;13.90;99.90
9193;DHT22;4631;49.296;10.560;2024-03-22T10:06:36;13.90;99.90
9193;DHT22;4631;49.296;10.560;2024-03-22T10:09:02;13.80;99.90
9193;DHT22;4631;49.296;10.560;2024-03-22T10:11:29;13.70;99.90
9193;DHT22;4631;49.296;10.560;2024-03-22T10:13:55;13.80;99.90
9193;DHT22;4631;49.296;10.560;2024-03-22T10:16:22;13.80;99.90
9193;DHT22;4631;49.296;10.560;2024-03-22T10:18:47;13.90;99.90
9193;DHT22;4631;49.296;10.560;2024-03-22T10:21:17;14.00;99.90
9193;DHT22;4631;49.296;10.560;2024-03-22T10:23:45;13.90;99.90
9193;DHT22;4631;49.296;10.560;2024-03-22T10:26:13;13.90;99.90
9193;DHT22;4631;49.296;10.560;2024-03-22T10:28:43;14.00;99.90
9193;DHT22;4631;49.296;10.560;2024-03-22T10:31:10;14.00;99.90
9193;DHT22;4631;49.296;10.560;2024-03-22T10:33:36;14.00;99.90
9193;DHT22;4631;49.296;10.560;2024-03-22T10:36:03;13.90;99.90
9193;DHT22;4631;49.296;10.560;2024-03-22T10:38:29;14.00;99.90
9193;DHT22;4631;49.296;10.560;2024-03-22T10:40:58;14.10;99.90
9193;DHT22;4631;49.296;10.560;2024-03-22T10:43:25;14.20;99.90
9193;DHT22;4631;49.296;10.560;2024-03-22T10:45:51;14.30;99.90
9193;DHT22;4631;49.296;10.560;2024-03-22T10:48:21;14.40;99.90
9193;DHT22;4631;49.296;10.560;2024-03-22T10:50:48;14.50;99.90
9193;DHT22;4631;49.296;10.560;2024-03-22T10:53:16;14.60;99.90
9193;DHT22;4631;49.296;10.560;2024-03-22T10:55:44;14.70;99.90
9193;DHT22;4631;49.296;10.560;2024-03-22T10:58:15;14.80;99.90
9193;DHT22;4631;49.296;10.560;2024-03-22T11:00:42;14.90;99.90
9193;DHT22;4631;49.296;10.560;2024-03-22T11:03:08;15.00;99.90
9193;DHT22;4631;49.296;10.560;2024-03-22T11:05:44;15.00;99.90
9193;DHT22;4631;49.296;10.560;2024-03-22T11:08:09;15.00;99.90
9193;DHT22;4631;49.296;10.560;2024-03-22T11:10:36;15.10;99.90
9193;DHT22;4631;49.296;10.560;2024-03-22T11:13:02;15.10;99.90
9193;DHT22;4631;49.296;10.560;2024-03-22T11:15:31;15.10;99.90
9193;DHT22;4631;49.296;10.560;2024-03-22T11:17:57;15.20;99.90
9193;DHT22;4631;49.296;10.560;2024-03-22T11:20:24;15.30;99.90
9193;DHT22;4631;49.296;10.560;2024-03-22T11:22:51;15.50;99.90
9193;DHT22;4631;49.296;10.560;2024-03-22T11:25:17;15.60;99.90
9193;DHT22;4631;49.296;10.560;2024-03-22T11:27:44;15.70;99.90
9193;DHT22;4631;49.296;10.560;2024-03-22T11:30:11;15.80;99.90
9193;DHT22;4631;49.296;10.560;2024-03-22T11:32:38;15.80;99.90
9193;DHT22;4631;49.296;10.560;2024-03-22T11:35:09;15.90;99.90
9193;DHT22;4631;49.296;10.560;2024-03-22T11:37:35;15.90;99.90
9193;DHT22;4631;49.296;10.560;2024-03-22T11:40:01;16.00;99.90
9193;DHT22;4631;49.296;10.560;2024-03-22T11:42:30;16.10;99.90
9193;DHT22;4631;49.296;10.560;2024-03-22T11:44:57;16.10;99.90
9193;DHT22;4631;49.296;10.560;2024-03-22T11:47:23;16.30;99.90
9193;DHT22;4631;49.296;10.560;2024-03-22T11:49:51;16.30;99.90
9193;DHT22;4631;49.296;10.560;2024-03-22T11:52:17;16.40;99.90
9193;DHT22;4631;49.296;10.560;2024-03-22T11:54:49;16.50;99.90
9193;DHT22;4631;49.296;10.560;2024-03-22T11:57:15;16.60;99.90
9193;DHT22;4631;49.296;10.560;2024-03-22T11:59:42;16.70;99.90
9193;DHT22;4631;49.296;10.560;2024-03-22T12:02:07;16.70;99.90
9193;DHT22;4631;49.296;10.560;2024-03-22T12:04:35;16.80;99.90
9193;DHT22;4631;49.296;10.560;2024-03-22T12:07:02;17.00;99.90
9193;DHT22;4631;49.296;10.560;2024-03-22T12:09:28;17.00;99.90
9193;DHT22;4631;49.296;10.560;2024-03-22T12:11:55;17.20;99.90
9193;DHT22;4631;49.296;10.560;2024-03-22T12:14:21;17.30;99.90
9193;DHT22;4631;49.296;10.560;2024-03-22T12:16:47;17.20;99.90
9193;DHT22;4631;49.296;10.560;2024-03-22T12:19:16;17.10;99.90
9193;DHT22;4631;49.296;10.560;2024-03-22T12:21:42;17.00;99.90
9193;DHT22;4631;49.296;10.560;2024-03-22T12:24:10;17.00;99.90
9193;DHT22;4631;49.296;10.560;2024-03-22T12:26:35;17.00;99.90
9193;DHT22;4631;49.296;10.560;2024-03-22T12:29:02;17.00;99.90
9193;DHT22;4631;49.296;10.560;2024-03-22T12:31:28;17.10;99.90
9193;DHT22;4631;49.296;10.560;2024-03-22T12:33:54;17.00;99.90
9193;DHT22;4631;49.296;10.560;2024-03-22T12:36:20;17.20;99.90
9193;DHT22;4631;49.296;10.560;2024-03-22T12:38:47;17.30;99.90
9193;DHT22;4631;49.296;10.560;2024-03-22T12:41:14;17.30;99.90
9193;DHT22;4631;49.296;10.560;2024-03-22T12:43:40;17.20;99.90
9193;DHT22;4631;49.296;10.560;2024-03-22T12:46:08;17.20;99.90
9193;DHT22;4631;49.296;10.560;2024-03-22T12:48:34;17.20;99.90
9193;DHT22;4631;49.296;10.560;2024-03-22T12:51:00;17.20;99.90
9193;DHT22;4631;49.296;10.560;2024-03-22T12:53:26;17.30;99.90
9193;DHT22;4631;49.296;10.560;2024-03-22T12:55:52;17.40;99.90
9193;DHT22;4631;49.296;10.560;2024-03-22T12:58:20;17.60;99.90
9193;DHT22;4631;49.296;10.560;2024-03-22T13:00:46;17.60;99.90
9193;DHT22;4631;49.296;10.560;2024-03-22T13:03:13;17.70;99.90
9193;DHT22;4631;49.296;10.560;2024-03-22T13:05:41;17.70;99.90
9193;DHT22;4631;49.296;10.560;2024-03-22T13:08:07;17.80;99.90
9193;DHT22;4631;49.296;10.560;2024-03-22T13:10:33;17.90;99.90
9193;DHT22;4631;49.296;10.560;2024-03-22T13:12:59;18.00;99.90
9193;DHT22;4631;49.296;10.560;2024-03-22T13:15:26;18.00;99.90
9193;DHT22;4631;49.296;10.560;2024-03-22T13:17:53;18.30;99.90
9193;DHT22;4631;49.296;10.560;2024-03-22T13:20:21;18.60;99.90
9193;DHT22;4631;49.296;10.560;2024-03-22T13:22:48;19.00;99.90
9193;DHT22;4631;49.296;10.560;2024-03-22T13:25:13;19.20;99.90
9193;DHT22;4631;49.296;10.560;2024-03-22T13:27:40;19.50;99.90
9193;DHT22;4631;49.296;10.560;2024-03-22T13:30:07;19.50;99.90
9193;DHT22;4631;49.296;10.560;2024-03-22T13:32:36;19.50;99.90
9193;DHT22;4631;49.296;10.560;2024-03-22T13:35:03;19.10;99.90
9193;DHT22;4631;49.296;10.560;2024-03-22T13:37:30;19.10;99.90
9193;DHT22;4631;49.296;10.560;2024-03-22T13:39:55;19.00;99.90
9193;DHT22;4631;49.296;10.560;2024-03-22T13:42:22;18.70;99.90
9193;DHT22;4631;49.296;10.560;2024-03-22T13:44:48;18.50;99.90
9193;DHT22;4631;49.296;10.560;2024-03-22T13:47:14;18.50;99.90
9193;DHT22;4631;49.296;10.560;2024-03-22T13:49:41;18.60;99.90
9193;DHT22;4631;49.296;10.560;2024-03-22T13:52:08;18.80;99.90
9193;DHT22;4631;49.296;10.560;2024-03-22T13:54:34;19.10;99.90
9193;DHT22;4631;49.296;10.560;2024-03-22T13:57:01;19.10;99.90
9193;DHT22;4631;49.296;10.560;2024-03-22T13:59:27;18.90;99.90
9193;DHT22;4631;49.296;10.560;2024-03-22T14:01:54;18.90;99.90
9193;DHT22;4631;49.296;10.560;2024-03-22T14:04:20;18.80;99.90
9193;DHT22;4631;49.296;10.560;2024-03-22T14:06:48;18.90;99.90
9193;DHT22;4631;49.296;10.560;2024-03-22T14:09:14;18.90;99.90
9193;DHT22;4631;49.296;10.560;2024-03-22T14:11:40;18.90;99.90
9193;DHT22;4631;49.296;10.560;2024-03-22T14:14:09;18.90;99.90
9193;DHT22;4631;49.296;10.560;2024-03-22T14:16:37;18.80;99.90
9193;DHT22;4631;49.296;10.560;2024-03-22T14:19:02;18.80;99.90
9193;DHT22;4631;49.296;10.560;2024-03-22T14:21:29;18.60;99.90
9193;DHT22;4631;49.296;10.560;2024-03-22T14:23:56;18.50;99.90
9193;DHT22;4631;49.296;10.560;2024-03-22T14:26:22;18.40;99.90
9193;DHT22;4631;49.296;10.560;2024-03-22T14:28:49;18.30;99.90
9193;DHT22;4631;49.296;10.560;2024-03-22T14:31:16;18.20;99.90
9193;DHT22;4631;49.296;10.560;2024-03-22T14:33:42;18.10;99.90
9193;DHT22;4631;49.296;10.560;2024-03-22T14:36:09;18.00;99.90
9193;DHT22;4631;49.296;10.560;2024-03-22T14:38:36;18.00;99.90
9193;DHT22;4631;49.296;10.560;2024-03-22T14:41:04;17.90;99.90
9193;DHT22;4631;49.296;10.560;2024-03-22T14:43:29;17.70;99.90
9193;DHT22;4631;49.296;10.560;2024-03-22T14:45:59;17.70;99.90
9193;DHT22;4631;49.296;10.560;2024-03-22T14:48:25;17.60;99.90
9193;DHT22;4631;49.296;10.560;2024-03-22T14:50:52;17.50;99.90
9193;DHT22;4631;49.296;10.560;2024-03-22T14:53:19;17.40;99.90
9193;DHT22;4631;49.296;10.560;2024-03-22T14:55:52;17.40;99.90
9193;DHT22;4631;49.296;10.560;2024-03-22T14:58:19;17.30;99.90
9193;DHT22;4631;49.296;10.560;2024-03-22T15:00:50;17.10;99.90
9193;DHT22;4631;49.296;10.560;2024-03-22T15:03:16;17.00;99.90
9193;DHT22;4631;49.296;10.560;2024-03-22T15:05:42;17.00;99.90
9193;DHT22;4631;49.296;10.560;2024-03-22T15:08:08;17.00;99.90
9193;DHT22;4631;49.296;10.560;2024-03-22T15:10:34;17.00;99.90
9193;DHT22;4631;49.296;10.560;2024-03-22T15:13:00;16.90;99.90
9193;DHT22;4631;49.296;10.560;2024-03-22T15:15:28;16.90;99.90
9193;DHT22;4631;49.296;10.560;2024-03-22T15:17:54;16.80;99.90
9193;DHT22;4631;49.296;10.560;2024-03-22T15:20:21;16.80;99.90
9193;DHT22;4631;49.296;10.560;2024-03-22T15:22:46;16.80;99.90
9193;DHT22;4631;49.296;10.560;2024-03-22T15:25:13;16.70;99.90
9193;DHT22;4631;49.296;10.560;2024-03-22T15:27:39;16.70;99.90
9193;DHT22;4631;49.296;10.560;2024-03-22T15:30:06;16.70;99.90
9193;DHT22;4631;49.296;10.560;2024-03-22T15:32:33;16.70;99.90
9193;DHT22;4631;49.296;10.560;2024-03-22T15:34:59;16.60;99.90
9193;DHT22;4631;49.296;10.560;2024-03-22T15:37:25;16.60;99.90
9193;DHT22;4631;49.296;10.560;2024-03-22T15:39:52;16.60;99.90
9193;DHT22;4631;49.296;10.560;2024-03-22T15:42:17;16.50;99.90
9193;DHT22;4631;49.296;10.560;2024-03-22T15:44:44;16.50;99.90
9193;DHT22;4631;49.296;10.560;2024-03-22T15:47:10;16.60;99.90
9193;DHT22;4631;49.296;10.560;2024-03-22T15:49:37;16.60;99.90